Gallina, NM (87017)

4:54 AM MST on January 30, 2015 (GMT -0700)
Las Silvestres | Change Station
CLOSE
Current Station
Personal Weather Station
Location: Abiquiu, NM
Elevation: 6010 ft
Nearby Weather Stations
Active Advisory: Winter Storm Warning

Elev 6010 ft 36.21 °N, 106.35 °W | Updated 9 minutes ago

Snow
Snow
32.2 °F
Feels Like 32 °F
N
2.0
Wind Variable Wind from East
Gusts 13.0 mph

Today
High -- | Low -- °F
--% Chance of Precip.
Yesterday
High -- | Low -- °F
Precip. -- in
7:09 AM 5:30 PM
Waxing Gibbous, 82% visible
Pressure 30.35 in
Visibility 1.2 miles
Clouds Overcast 600 ft
Windchill 32 °F
Dew Point 27 °F
Humidity 80%
Rainfall 0.00 in
Snow Depth Not available.
UV 0 out of 12
Pollen 1.30 out of 12
Air Quality Not available.
Flu Activity Not available.
METAR KLAM 301135Z AUTO 22008KT 1 1/4SM -SN OVC006 M03/M03 A3035 RMK AO2 T10311031

More Conditions Fewer Conditions

Pressure 30.35 in
Visibility 1.2 miles
Clouds Overcast 600 ft
Windchill 32 °F
Dew Point 27 °F
Humidity 80%
Rainfall 0.00 in
Snow Depth Not available.
UV 0 out of 12
Pollen 1.30 out of 12
Air Quality Not available.
Flu Activity Not available.
METAR KLAM 301135Z AUTO 22008KT 1 1/4SM -SN OVC006 M03/M03 A3035 RMK AO2 T10311031

More Conditions Fewer Conditions

Nowcast | as of 1:57 am MST on January 30, 2015

Snow will increase in coverage and intensity across central New Mexico through the overnight...mixed with rain at lower elevations. The snow level will vary between 5000 and 6000 feet. Periods of snow may impact roads including Interstate 40 around Albuquerque and Interstate 25 near Glorieta Pass. 1 or 2 inches of new snow accumulation will be possible above 6000 feet by 5 am MST. For the latest Road conditions visit nm roads.Com or dial 511.

×

10-Day Weather Forecast

Almanac

Astronomy

Jan. 30, 2015 Rise Set
Actual Time
Civil Twilight
Nautical Twilight
Astronomical Twilight
Moon
Length of Visible Light
Length of Day
Tomorrow will be .
, % of the Moon is Illuminated

Today's Extremes

State Highs State Lows

Community

WunderPhotos

Upload Photos

1,791,737 photos uploaded!

WunderBlogs® & News

Nearby

Air Quality

  Air Quality AQ Index Pollutant
Not available.

Snow Depth

Station Depth Elevation

Earthquake Activity

City Distance Mag. Time & Date
Minimum magnitude displayed is 2.5.

Coastal Water Temperatures

Place Temperature

Nearby Weather Stations